createdAt,value
2019-05-21T00:02:24.585Z,12.50
2019-05-21T00:04:55.791Z,12.50
2019-05-21T00:07:26.425Z,12.50
2019-05-21T00:09:57.827Z,12.40
2019-05-21T00:12:28.509Z,12.40
2019-05-21T00:14:59.309Z,12.40
2019-05-21T00:17:30.012Z,12.40
2019-05-21T00:20:00.661Z,12.40
2019-05-21T00:22:31.429Z,12.40
2019-05-21T00:25:02.197Z,12.30
2019-05-21T00:27:32.910Z,12.30
2019-05-21T00:30:56.974Z,12.20
2019-05-21T00:34:21.010Z,12.10
2019-05-21T00:37:45.309Z,12.10
2019-05-21T00:41:09.392Z,12.00
2019-05-21T00:43:52.895Z,11.90
2019-05-21T00:46:23.611Z,11.90
2019-05-21T00:48:54.360Z,11.90
2019-05-21T00:51:25.055Z,11.90
2019-05-21T00:53:55.846Z,11.90
2019-05-21T00:56:26.500Z,11.80
2019-05-21T00:58:57.700Z,11.80
2019-05-21T01:01:29.177Z,11.80
2019-05-21T01:04:00.627Z,11.90
2019-05-21T01:06:31.309Z,11.90
2019-05-21T01:09:02.613Z,11.90
2019-05-21T01:11:33.774Z,11.90
2019-05-21T01:14:04.578Z,11.90
2019-05-21T01:16:35.371Z,11.80
2019-05-21T01:19:06.050Z,11.80
2019-05-21T01:21:36.729Z,11.80
2019-05-21T01:24:08.276Z,11.80
2019-05-21T01:26:39.461Z,11.90
2019-05-21T01:29:10.137Z,11.90
2019-05-21T01:31:40.815Z,12.00
2019-05-21T01:34:11.791Z,12.00
2019-05-21T01:36:43.077Z,12.00
2019-05-21T01:39:14.046Z,11.90
2019-05-21T01:41:44.729Z,11.80
2019-05-21T01:44:15.517Z,11.70
2019-05-21T01:46:46.215Z,11.50
2019-05-21T01:49:17.040Z,11.50
2019-05-21T01:51:47.724Z,11.40
2019-05-21T01:54:19.419Z,11.30
2019-05-21T01:56:50.079Z,11.30
2019-05-21T01:59:20.765Z,11.40
2019-05-21T02:01:51.512Z,11.50
2019-05-21T02:04:22.184Z,11.50
2019-05-21T02:06:52.903Z,11.50
2019-05-21T02:09:23.659Z,11.50
2019-05-21T02:11:54.359Z,11.40
2019-05-21T02:14:24.991Z,11.40
2019-05-21T02:16:56.362Z,11.40
2019-05-21T02:19:27.032Z,11.30
2019-05-21T02:21:58.243Z,11.20
2019-05-21T02:24:28.926Z,11.20
2019-05-21T02:27:00.405Z,11.10
2019-05-21T02:29:31.081Z,11.10
2019-05-21T02:32:01.772Z,11.10
2019-05-21T02:34:32.440Z,11.00
2019-05-21T02:37:06.150Z,11.10
2019-05-21T02:39:35.506Z,11.00
2019-05-21T02:42:07.344Z,11.00
2019-05-21T02:44:38.147Z,11.10
2019-05-21T02:47:08.853Z,11.00
2019-05-21T02:49:39.499Z,10.90
2019-05-21T02:52:10.180Z,10.90
2019-05-21T02:54:42.143Z,11.00
2019-05-21T02:57:12.953Z,11.10
2019-05-21T02:59:45.264Z,11.30
2019-05-21T03:02:22.920Z,11.10
2019-05-21T03:04:53.564Z,11.00
2019-05-21T03:07:25.615Z,10.90
2019-05-21T03:09:56.478Z,10.90
2019-05-21T03:12:27.148Z,10.80
2019-05-21T03:14:58.636Z,10.80
2019-05-21T03:17:29.440Z,10.70
2019-05-21T03:20:00.852Z,10.70
2019-05-21T03:22:31.548Z,10.70
2019-05-21T03:25:03.127Z,10.60
2019-05-21T03:27:33.800Z,10.60
2019-05-21T03:30:05.239Z,10.60
2019-05-21T03:32:35.943Z,10.60
2019-05-21T03:35:08.857Z,10.60
2019-05-21T03:37:39.487Z,10.80
2019-05-21T03:40:11.551Z,10.80
2019-05-21T03:42:43.177Z,10.80
2019-05-21T03:45:15.256Z,10.90
2019-05-21T03:47:45.969Z,10.90
2019-05-21T03:50:19.710Z,11.00
2019-05-21T03:52:50.419Z,11.10
2019-05-21T03:55:22.265Z,11.20
2019-05-21T03:57:52.914Z,11.50
2019-05-21T04:00:23.558Z,11.70
2019-05-21T04:02:54.256Z,11.90
2019-05-21T04:05:29.009Z,11.90
2019-05-21T04:07:59.952Z,11.90
2019-05-21T04:10:30.801Z,11.90
2019-05-21T04:13:08.678Z,11.90
2019-05-21T04:16:20.686Z,11.90
2019-05-21T04:19:01.938Z,11.90
2019-05-21T04:21:32.581Z,12.00
2019-05-21T04:24:03.817Z,12.20
2019-05-21T04:26:34.475Z,12.30
2019-05-21T04:29:05.933Z,12.50
2019-05-21T04:31:36.721Z,12.60
2019-05-21T04:34:07.510Z,12.70
2019-05-21T04:36:38.584Z,12.90
2019-05-21T04:39:09.947Z,13.00
2019-05-21T04:41:40.776Z,13.20
2019-05-21T04:44:11.567Z,13.30
2019-05-21T04:46:42.293Z,13.40
2019-05-21T04:49:12.981Z,13.40
2019-05-21T04:51:43.841Z,13.40
2019-05-21T04:54:14.554Z,13.60
2019-05-21T04:56:45.198Z,13.80
2019-05-21T04:59:15.921Z,14.00
2019-05-21T05:01:46.635Z,14.20
2019-05-21T05:04:21.427Z,14.60
2019-05-21T05:06:49.847Z,15.20
2019-05-21T05:09:20.581Z,15.60
2019-05-21T05:11:51.289Z,16.00
2019-05-21T05:14:24.806Z,16.30
2019-05-21T05:16:55.462Z,16.60
2019-05-21T05:19:26.211Z,16.80
2019-05-21T05:21:56.902Z,17.10
2019-05-21T05:24:27.661Z,16.90
2019-05-21T05:26:58.345Z,17.10
2019-05-21T05:29:29.003Z,17.20
2019-05-21T05:31:59.713Z,17.30
2019-05-21T05:34:30.439Z,17.40
2019-05-21T05:37:01.142Z,17.20
2019-05-21T05:39:31.832Z,17.30
2019-05-21T05:42:03.945Z,17.30
2019-05-21T05:44:34.647Z,17.10
2019-05-21T05:47:05.562Z,17.20
2019-05-21T05:49:40.933Z,17.70
2019-05-21T05:52:11.656Z,18.10
2019-05-21T05:54:43.012Z,18.50
2019-05-21T05:57:14.053Z,18.70
2019-05-21T05:59:44.747Z,18.90
2019-05-21T06:02:15.452Z,19.10
2019-05-21T06:04:46.084Z,19.00
2019-05-21T06:07:16.755Z,19.20
2019-05-21T06:09:47.495Z,19.20
2019-05-21T06:12:18.221Z,19.30
2019-05-21T06:14:48.978Z,19.10
2019-05-21T06:17:19.602Z,19.10
2019-05-21T06:19:50.307Z,19.10
2019-05-21T06:22:20.975Z,19.50
2019-05-21T06:24:51.676Z,19.90
2019-05-21T06:27:22.324Z,20.00
2019-05-21T06:29:53.050Z,20.40
2019-05-21T06:32:23.700Z,20.50
2019-05-21T06:34:54.349Z,20.20
2019-05-21T06:37:24.986Z,20.10
2019-05-21T06:39:55.647Z,19.90
2019-05-21T06:42:26.380Z,19.90
2019-05-21T06:44:57.194Z,19.70
2019-05-21T06:47:27.937Z,20.30
2019-05-21T06:49:58.623Z,20.80
2019-05-21T06:52:29.493Z,21.00
2019-05-21T06:55:03.050Z,21.50
2019-05-21T06:57:33.858Z,22.10
2019-05-21T07:00:05.263Z,22.30
2019-05-21T07:02:36.030Z,22.50
2019-05-21T07:05:07.301Z,22.60
2019-05-21T07:07:38.358Z,22.80
2019-05-21T07:10:10.931Z,22.60
2019-05-21T07:12:42.390Z,22.20
2019-05-21T07:15:16.600Z,22.00
2019-05-21T07:17:47.301Z,22.30
2019-05-21T07:20:19.247Z,22.50
2019-05-21T07:22:50.041Z,22.60
2019-05-21T07:25:20.898Z,22.80
2019-05-21T07:27:51.632Z,23.10
2019-05-21T07:30:22.785Z,23.30
2019-05-21T07:32:53.681Z,23.40
2019-05-21T07:35:24.528Z,23.40
2019-05-21T07:37:55.216Z,23.30
2019-05-21T07:40:26.265Z,23.30
2019-05-21T07:42:56.951Z,23.30
2019-05-21T07:45:27.633Z,23.40
2019-05-21T07:47:58.284Z,23.40
2019-05-21T07:50:29.010Z,23.50
2019-05-21T07:52:59.713Z,23.40
2019-05-21T07:55:30.414Z,23.50
2019-05-21T07:58:02.700Z,23.10
2019-05-21T08:00:33.440Z,23.20
2019-05-21T08:03:05.036Z,23.60
2019-05-21T08:05:35.750Z,23.30
2019-05-21T08:08:06.423Z,23.10
2019-05-21T08:10:37.061Z,23.10
2019-05-21T08:13:15.297Z,23.10
2019-05-21T08:15:47.509Z,22.90
2019-05-21T08:18:18.875Z,22.90
2019-05-21T08:21:44.454Z,22.90
2019-05-21T08:24:15.961Z,22.70
2019-05-21T08:26:46.635Z,23.10
2019-05-21T08:29:18.617Z,23.60
2019-05-21T08:31:49.274Z,23.50
2019-05-21T08:34:20.019Z,23.50
2019-05-21T08:36:51.097Z,23.90
2019-05-21T08:39:28.815Z,23.80
2019-05-21T08:41:54.355Z,23.90
2019-05-21T08:44:25.001Z,23.80
2019-05-21T08:46:55.652Z,23.40
2019-05-21T08:49:26.512Z,23.00
2019-05-21T08:51:57.938Z,22.90
2019-05-21T08:54:46.500Z,22.60
2019-05-21T08:57:17.994Z,22.30
2019-05-21T08:59:48.888Z,21.80
2019-05-21T09:02:20.529Z,21.90
2019-05-21T09:04:52.369Z,22.10
2019-05-21T09:07:23.113Z,22.80
2019-05-21T09:09:53.833Z,23.40
2019-05-21T09:12:24.510Z,23.90
2019-05-21T09:14:55.190Z,24.10
2019-05-21T09:17:25.948Z,24.20
2019-05-21T09:19:56.653Z,24.50
2019-05-21T09:22:27.356Z,24.20
2019-05-21T09:24:58.037Z,24.20
2019-05-21T09:27:28.798Z,23.90
2019-05-21T09:29:59.508Z,23.80
2019-05-21T09:32:30.361Z,24.10
2019-05-21T09:35:01.034Z,24.00
2019-05-21T09:37:31.724Z,23.80
2019-05-21T09:40:02.578Z,23.80
2019-05-21T09:42:33.431Z,23.30
2019-05-21T09:45:04.741Z,23.20
2019-05-21T09:47:35.669Z,23.40
2019-05-21T09:50:07.747Z,23.40
2019-05-21T09:52:38.521Z,23.80
2019-05-21T09:55:10.365Z,23.60
2019-05-21T09:58:01.187Z,23.50
2019-05-21T10:01:16.191Z,23.40
2019-05-21T10:03:57.960Z,23.10
2019-05-21T10:06:28.847Z,23.70
2019-05-21T10:08:59.598Z,24.00
2019-05-21T10:11:31.343Z,24.10
2019-05-21T10:14:02.072Z,24.00
2019-05-21T10:16:32.880Z,24.30
2019-05-21T10:19:03.630Z,24.60
2019-05-21T10:21:34.352Z,24.40
2019-05-21T10:24:05.802Z,24.30
2019-05-21T10:26:36.580Z,24.70
2019-05-21T10:29:07.464Z,25.00
2019-05-21T10:31:38.360Z,24.80
2019-05-21T10:34:12.703Z,24.80
2019-05-21T10:36:42.331Z,24.90
2019-05-21T10:39:13.457Z,24.80
2019-05-21T10:41:46.217Z,24.00
2019-05-21T10:44:16.560Z,23.90
2019-05-21T10:46:47.364Z,24.20
2019-05-21T10:49:18.057Z,24.70
2019-05-21T10:51:48.763Z,25.00
2019-05-21T10:54:20.978Z,25.00
2019-05-21T10:56:51.728Z,25.40
2019-05-21T10:59:22.945Z,25.50
2019-05-21T11:02:15.569Z,25.50
2019-05-21T11:04:59.313Z,25.50
2019-05-21T11:07:30.225Z,25.90
2019-05-21T11:10:00.960Z,25.90
2019-05-21T11:12:31.688Z,25.60
2019-05-21T11:15:02.475Z,25.60
2019-05-21T11:17:48.358Z,25.80
2019-05-21T11:20:06.430Z,25.80
2019-05-21T11:22:37.096Z,26.20
2019-05-21T11:25:08.845Z,26.30
2019-05-21T11:27:40.304Z,26.90
2019-05-21T11:30:12.368Z,27.00
2019-05-21T11:32:43.083Z,26.80
2019-05-21T11:35:14.223Z,27.00
2019-05-21T11:37:47.803Z,27.30
2019-05-21T11:40:19.055Z,27.50
2019-05-21T11:42:53.025Z,27.50
2019-05-21T11:45:32.348Z,27.30
2019-05-21T11:47:55.791Z,27.40
2019-05-21T11:50:26.972Z,27.60
2019-05-21T11:52:57.918Z,27.50
2019-05-21T11:55:28.922Z,27.20
2019-05-21T11:57:59.648Z,27.20
2019-05-21T12:00:30.604Z,26.90
2019-05-21T12:03:01.305Z,26.90
2019-05-21T12:05:32.087Z,26.50
2019-05-21T12:08:02.809Z,26.30
2019-05-21T12:10:33.537Z,25.60
2019-05-21T12:13:04.284Z,25.30
2019-05-21T12:15:34.938Z,25.30
2019-05-21T12:18:06.242Z,25.50
2019-05-21T12:20:37.572Z,25.90
2019-05-21T12:23:08.853Z,26.10
2019-05-21T12:25:39.583Z,26.00
2019-05-21T12:28:11.227Z,25.30
2019-05-21T12:30:43.137Z,25.10
2019-05-21T12:33:13.997Z,25.30
2019-05-21T12:35:44.624Z,25.50
2019-05-21T12:38:15.322Z,25.10
2019-05-21T12:40:46.217Z,24.90
2019-05-21T12:43:17.164Z,24.70
2019-05-21T12:45:47.847Z,24.60
2019-05-21T12:48:18.607Z,24.30
2019-05-21T12:51:09.128Z,24.30
2019-05-21T12:54:07.341Z,24.30
2019-05-21T12:56:40.630Z,24.40
2019-05-21T12:59:09.390Z,24.50
2019-05-21T13:01:40.094Z,24.70
2019-05-21T13:04:10.807Z,24.90
2019-05-21T13:06:42.688Z,24.90
2019-05-21T13:09:31.352Z,25.20
2019-05-21T13:11:46.120Z,25.80
2019-05-21T13:14:18.926Z,26.70
2019-05-21T13:16:49.456Z,27.20
2019-05-21T13:19:20.194Z,27.80
2019-05-21T13:21:51.232Z,27.60
2019-05-21T13:24:25.464Z,27.60
2019-05-21T13:26:56.203Z,28.10
2019-05-21T13:29:26.853Z,28.90
2019-05-21T13:32:04.174Z,29.10
2019-05-21T13:34:35.375Z,28.30
2019-05-21T13:37:06.336Z,28.00
2019-05-21T13:39:49.383Z,28.70
2019-05-21T13:42:10.799Z,29.20
2019-05-21T13:44:41.452Z,29.90
2019-05-21T13:47:12.246Z,30.30
2019-05-21T13:49:42.864Z,29.30
2019-05-21T13:52:13.602Z,28.70
2019-05-21T13:54:44.372Z,29.10
2019-05-21T13:57:19.191Z,29.50
2019-05-21T13:59:49.929Z,28.80
2019-05-21T14:02:20.820Z,28.60
2019-05-21T14:04:51.492Z,28.90
2019-05-21T14:07:22.203Z,29.50
2019-05-21T14:10:12.479Z,30.20
2019-05-21T14:12:26.967Z,30.60
2019-05-21T14:14:57.684Z,29.90
2019-05-21T14:17:28.445Z,30.40
2019-05-21T14:19:59.091Z,30.90
2019-05-21T14:22:29.756Z,31.30
2019-05-21T14:25:00.593Z,31.50
2019-05-21T14:27:43.882Z,31.80
2019-05-21T14:30:06.890Z,30.80
2019-05-21T14:32:38.276Z,31.00
2019-05-21T14:35:09.256Z,29.10
2019-05-21T14:37:40.268Z,28.90
2019-05-21T14:40:28.480Z,28.90
2019-05-21T14:42:58.501Z,28.90
2019-05-21T14:45:17.835Z,29.10
2019-05-21T14:47:48.664Z,29.20
2019-05-21T14:50:19.661Z,29.30
2019-05-21T14:52:52.324Z,29.30
2019-05-21T14:55:22.916Z,30.30
2019-05-21T14:57:53.617Z,30.60
2019-05-21T15:00:33.384Z,30.10
2019-05-21T15:03:04.777Z,29.70
2019-05-21T15:05:36.823Z,29.50
2019-05-21T15:08:07.575Z,29.00
2019-05-21T15:10:48.547Z,28.60
2019-05-21T15:13:11.723Z,28.30
2019-05-21T15:15:43.559Z,27.90
2019-05-21T15:18:20.786Z,27.80
2019-05-21T15:20:52.346Z,28.00
2019-05-21T15:23:23.145Z,27.90
2019-05-21T15:25:53.806Z,28.10
2019-05-21T15:28:24.477Z,28.10
2019-05-21T15:30:55.189Z,27.90
2019-05-21T15:33:25.886Z,27.60
2019-05-21T15:35:56.544Z,27.20
2019-05-21T15:38:27.221Z,27.10
2019-05-21T15:41:09.802Z,26.80
2019-05-21T15:43:32.291Z,26.70
2019-05-21T15:46:03.077Z,26.30
2019-05-21T15:48:33.707Z,26.40
2019-05-21T15:51:05.666Z,26.40
2019-05-21T15:53:37.219Z,26.40
2019-05-21T15:56:07.896Z,26.50
2019-05-21T15:58:38.747Z,26.30
2019-05-21T16:01:09.480Z,26.30
2019-05-21T16:03:41.595Z,26.60
2019-05-21T16:06:12.670Z,26.70
2019-05-21T16:08:44.190Z,26.90
2019-05-21T16:11:28.180Z,27.00
2019-05-21T16:13:47.440Z,27.10
2019-05-21T16:16:18.139Z,26.90
2019-05-21T16:18:48.962Z,26.20
2019-05-21T16:21:19.684Z,25.80
2019-05-21T16:23:50.343Z,25.20
2019-05-21T16:26:23.420Z,24.80
2019-05-21T16:28:53.958Z,24.10
2019-05-21T16:31:26.444Z,23.60
2019-05-21T16:33:57.830Z,22.90
2019-05-21T16:36:28.629Z,22.20
2019-05-21T16:38:59.514Z,21.80
2019-05-21T16:41:43.641Z,21.30
2019-05-21T16:44:03.566Z,20.70
2019-05-21T16:46:34.281Z,20.30
2019-05-21T16:49:05.103Z,20.30
2019-05-21T16:51:35.792Z,20.10
2019-05-21T16:54:07.408Z,19.90
2019-05-21T16:56:38.189Z,19.70
2019-05-21T16:59:08.949Z,19.60
2019-05-21T17:01:39.719Z,19.40
2019-05-21T17:04:10.465Z,19.40
2019-05-21T17:06:42.637Z,19.30
2019-05-21T17:09:14.827Z,19.40
2019-05-21T17:11:59.027Z,19.10
2019-05-21T17:14:18.828Z,18.90
2019-05-21T17:16:49.619Z,18.90
2019-05-21T17:19:20.312Z,18.70
2019-05-21T17:21:50.984Z,18.50
2019-05-21T17:24:21.625Z,18.50
2019-05-21T17:26:52.386Z,18.40
2019-05-21T17:29:23.015Z,18.20
2019-05-21T17:31:53.687Z,18.00
2019-05-21T17:34:24.339Z,18.10
2019-05-21T17:36:55.458Z,18.30
2019-05-21T17:39:26.313Z,18.10
2019-05-21T17:41:57.484Z,18.10
2019-05-21T17:44:28.281Z,18.10
2019-05-21T17:46:59.939Z,18.10
2019-05-21T17:49:30.785Z,18.10
2019-05-21T17:52:03.863Z,18.00
2019-05-21T17:54:35.029Z,18.00
2019-05-21T17:57:06.052Z,18.10
2019-05-21T17:59:36.993Z,18.20
2019-05-21T18:02:10.151Z,18.30
2019-05-21T18:04:41.706Z,18.40
2019-05-21T18:07:14.437Z,18.50
2019-05-21T18:09:49.922Z,18.50
2019-05-21T18:12:31.597Z,18.50
2019-05-21T18:14:55.272Z,18.50
2019-05-21T18:17:28.956Z,18.60
2019-05-21T18:20:01.319Z,18.60
2019-05-21T18:22:33.323Z,18.60
2019-05-21T18:25:05.964Z,18.70
2019-05-21T18:27:37.916Z,18.80
2019-05-21T18:30:12.274Z,18.80
2019-05-21T18:32:43.699Z,18.70
2019-05-21T18:35:15.012Z,18.70
2019-05-21T18:37:46.633Z,18.60
2019-05-21T18:40:18.300Z,18.60
2019-05-21T18:42:49.312Z,18.60
2019-05-21T18:45:19.995Z,18.50
2019-05-21T18:47:51.393Z,18.60
2019-05-21T18:50:34.853Z,18.50
2019-05-21T18:52:54.579Z,18.50
2019-05-21T18:55:25.268Z,18.50
2019-05-21T18:57:56.077Z,18.40
2019-05-21T19:00:27.182Z,18.40
2019-05-21T19:02:58.201Z,18.30
2019-05-21T19:05:29.007Z,18.30
2019-05-21T19:07:59.800Z,18.30
2019-05-21T19:10:34.286Z,18.30
2019-05-21T19:13:05.719Z,18.20
2019-05-21T19:15:36.692Z,18.20
2019-05-21T19:18:08.335Z,18.20
2019-05-21T19:20:39.253Z,18.20
2019-05-21T19:23:10.720Z,18.20
2019-05-21T19:25:41.636Z,18.10
2019-05-21T19:28:12.366Z,18.10
2019-05-21T19:30:43.479Z,18.00
2019-05-21T19:33:14.559Z,18.00
2019-05-21T19:35:47.127Z,18.00
2019-05-21T19:38:18.070Z,17.90
2019-05-21T19:40:48.862Z,17.80
2019-05-21T19:43:19.705Z,17.80
2019-05-21T19:45:50.401Z,17.80
2019-05-21T19:48:21.366Z,17.70
2019-05-21T19:50:52.055Z,17.70
2019-05-21T19:53:22.831Z,17.70
2019-05-21T19:55:53.823Z,17.70
2019-05-21T19:58:24.582Z,17.70
2019-05-21T20:00:57.071Z,17.70
2019-05-21T20:03:27.734Z,17.80
2019-05-21T20:05:59.181Z,17.90
2019-05-21T20:08:29.993Z,17.90
2019-05-21T20:11:01.302Z,17.90
2019-05-21T20:13:33.002Z,17.90
2019-05-21T20:16:04.918Z,17.80
2019-05-21T20:18:35.672Z,17.80
2019-05-21T20:21:08.968Z,17.90
2019-05-21T20:23:44.080Z,17.80
2019-05-21T20:26:19.241Z,17.80
2019-05-21T20:28:49.938Z,17.80
2019-05-21T20:31:21.305Z,17.80
2019-05-21T20:33:54.055Z,17.90
2019-05-21T20:36:25.058Z,17.80
2019-05-21T20:38:56.119Z,17.80
2019-05-21T20:41:27.406Z,17.80
2019-05-21T20:43:59.311Z,17.80
2019-05-21T20:46:31.299Z,17.90
2019-05-21T20:49:03.953Z,17.80
2019-05-21T20:51:35.091Z,17.70
2019-05-21T20:54:08.400Z,17.80
2019-05-21T20:56:39.993Z,17.80
2019-05-21T20:59:10.774Z,17.80
2019-05-21T21:01:44.506Z,17.80
2019-05-21T21:04:15.213Z,17.80
2019-05-21T21:06:47.107Z,17.70
2019-05-21T21:09:18.523Z,17.70
2019-05-21T21:11:50.077Z,17.70
2019-05-21T21:14:21.101Z,17.60
2019-05-21T21:16:51.964Z,17.60
2019-05-21T21:19:22.892Z,17.60
2019-05-21T21:21:53.786Z,17.60
2019-05-21T21:24:24.712Z,17.60
2019-05-21T21:26:55.390Z,17.60
2019-05-21T21:29:26.071Z,17.70
2019-05-21T21:31:56.955Z,17.70
2019-05-21T21:34:27.766Z,17.60
2019-05-21T21:36:58.758Z,17.60
2019-05-21T21:39:29.494Z,17.60
2019-05-21T21:42:01.487Z,17.50
2019-05-21T21:44:34.284Z,17.60
2019-05-21T21:47:05.354Z,17.50
2019-05-21T21:49:36.688Z,17.60
2019-05-21T21:52:08.527Z,17.60
2019-05-21T21:54:39.745Z,17.40
2019-05-21T21:57:11.371Z,17.50
2019-05-21T21:59:42.068Z,17.50
2019-05-21T22:02:23.606Z,17.60
2019-05-21T22:04:55.857Z,17.60
2019-05-21T22:07:27.802Z,17.60
2019-05-21T22:09:58.691Z,17.60
2019-05-21T22:12:30.172Z,17.60
2019-05-21T22:15:02.446Z,17.60
2019-05-21T22:17:33.293Z,17.60
2019-05-21T22:20:05.403Z,17.60
2019-05-21T22:22:37.542Z,17.60
2019-05-21T22:25:09.137Z,17.60
2019-05-21T22:27:40.999Z,17.60
2019-05-21T22:30:12.914Z,17.60
2019-05-21T22:32:43.653Z,17.60
2019-05-21T22:35:14.312Z,17.50
2019-05-21T22:37:44.969Z,17.50
2019-05-21T22:40:17.673Z,17.60
2019-05-21T22:42:48.453Z,17.60
2019-05-21T22:45:19.251Z,17.60
2019-05-21T22:47:50.029Z,17.60
2019-05-21T22:50:20.714Z,17.60
2019-05-21T22:52:51.393Z,17.60
2019-05-21T22:55:22.112Z,17.60
2019-05-21T22:57:52.820Z,17.60
2019-05-21T23:00:23.689Z,17.60
2019-05-21T23:02:54.483Z,17.60
2019-05-21T23:05:25.178Z,17.50
2019-05-21T23:07:56.603Z,17.50
2019-05-21T23:10:27.780Z,17.50
2019-05-21T23:12:58.615Z,17.50
2019-05-21T23:15:29.805Z,17.60
2019-05-21T23:18:00.713Z,17.50
2019-05-21T23:20:34.315Z,17.50
2019-05-21T23:23:06.764Z,17.50
2019-05-21T23:25:39.194Z,17.50
2019-05-21T23:28:11.233Z,17.60
2019-05-21T23:30:42.805Z,17.50
2019-05-21T23:33:14.588Z,17.50
2019-05-21T23:35:45.430Z,17.50
2019-05-21T23:38:18.653Z,17.50
2019-05-21T23:40:51.161Z,17.50
2019-05-21T23:43:22.201Z,17.50
2019-05-21T23:45:52.979Z,17.50
2019-05-21T23:48:24.755Z,17.40
2019-05-21T23:50:55.408Z,17.40
2019-05-21T23:53:26.618Z,17.40
2019-05-21T23:55:57.662Z,17.40
2019-05-21T23:58:28.737Z,17.30
